sensor_id;sensor_type;location;lat;lon;timestamp;P1;durP1;ratioP1;P2;durP2;ratioP2
9986;SDS011;5033;46.310;11.214;2023-02-14T00:00:12;10.75;;;9.65;;
9986;SDS011;5033;46.310;11.214;2023-02-14T00:02:39;11.45;;;10.25;;
9986;SDS011;5033;46.310;11.214;2023-02-14T00:05:07;11.70;;;9.98;;
9986;SDS011;5033;46.310;11.214;2023-02-14T00:07:34;11.25;;;9.93;;
9986;SDS011;5033;46.310;11.214;2023-02-14T00:10:01;11.15;;;10.05;;
9986;SDS011;5033;46.310;11.214;2023-02-14T00:12:28;11.30;;;10.10;;
9986;SDS011;5033;46.310;11.214;2023-02-14T00:14:55;12.13;;;10.20;;
9986;SDS011;5033;46.310;11.214;2023-02-14T00:17:41;11.70;;;9.73;;
9986;SDS011;5033;46.310;11.214;2023-02-14T00:20:09;11.20;;;9.52;;
9986;SDS011;5033;46.310;11.214;2023-02-14T00:22:36;11.48;;;10.27;;
9986;SDS011;5033;46.310;11.214;2023-02-14T00:25:04;13.40;;;10.85;;
9986;SDS011;5033;46.310;11.214;2023-02-14T00:27:31;12.23;;;10.55;;
9986;SDS011;5033;46.310;11.214;2023-02-14T00:29:58;10.93;;;9.80;;
9986;SDS011;5033;46.310;11.214;2023-02-14T00:32:27;11.20;;;10.00;;
9986;SDS011;5033;46.310;11.214;2023-02-14T00:34:56;11.65;;;10.45;;
9986;SDS011;5033;46.310;11.214;2023-02-14T00:37:23;12.27;;;10.93;;
9986;SDS011;5033;46.310;11.214;2023-02-14T00:39:50;11.38;;;10.13;;
9986;SDS011;5033;46.310;11.214;2023-02-14T00:42:17;11.32;;;9.93;;
9986;SDS011;5033;46.310;11.214;2023-02-14T00:44:44;12.23;;;10.52;;
9986;SDS011;5033;46.310;11.214;2023-02-14T00:47:11;11.23;;;9.93;;
9986;SDS011;5033;46.310;11.214;2023-02-14T00:49:38;11.35;;;10.18;;
9986;SDS011;5033;46.310;11.214;2023-02-14T00:52:07;11.80;;;10.60;;
9986;SDS011;5033;46.310;11.214;2023-02-14T00:54:35;10.75;;;9.52;;
9986;SDS011;5033;46.310;11.214;2023-02-14T00:57:02;10.75;;;9.63;;
9986;SDS011;5033;46.310;11.214;2023-02-14T00:59:29;11.27;;;10.15;;
9986;SDS011;5033;46.310;11.214;2023-02-14T01:01:56;10.30;;;9.30;;
9986;SDS011;5033;46.310;11.214;2023-02-14T01:04:23;10.05;;;9.02;;
9986;SDS011;5033;46.310;11.214;2023-02-14T01:06:50;10.68;;;9.57;;
9986;SDS011;5033;46.310;11.214;2023-02-14T01:09:19;9.75;;;8.65;;
9986;SDS011;5033;46.310;11.214;2023-02-14T01:11:46;10.18;;;9.15;;
9986;SDS011;5033;46.310;11.214;2023-02-14T01:14:14;10.45;;;9.32;;
9986;SDS011;5033;46.310;11.214;2023-02-14T01:16:41;10.48;;;9.40;;
9986;SDS011;5033;46.310;11.214;2023-02-14T01:19:08;10.02;;;9.02;;
9986;SDS011;5033;46.310;11.214;2023-02-14T01:21:35;9.55;;;8.65;;
9986;SDS011;5033;46.310;11.214;2023-02-14T01:24:03;10.82;;;9.55;;
9986;SDS011;5033;46.310;11.214;2023-02-14T01:26:34;10.32;;;9.27;;
9986;SDS011;5033;46.310;11.214;2023-02-14T01:29:01;10.25;;;9.18;;
9986;SDS011;5033;46.310;11.214;2023-02-14T01:31:29;9.75;;;8.75;;
9986;SDS011;5033;46.310;11.214;2023-02-14T01:33:59;10.88;;;9.75;;
9986;SDS011;5033;46.310;11.214;2023-02-14T01:36:26;9.73;;;8.75;;
9986;SDS011;5033;46.310;11.214;2023-02-14T01:38:54;9.63;;;8.63;;
9986;SDS011;5033;46.310;11.214;2023-02-14T01:41:27;10.50;;;9.35;;
9986;SDS011;5033;46.310;11.214;2023-02-14T01:43:58;9.05;;;8.15;;
9986;SDS011;5033;46.310;11.214;2023-02-14T01:46:27;10.25;;;9.25;;
9986;SDS011;5033;46.310;11.214;2023-02-14T01:48:57;10.23;;;9.00;;
9986;SDS011;5033;46.310;11.214;2023-02-14T01:51:27;10.73;;;9.50;;
9986;SDS011;5033;46.310;11.214;2023-02-14T01:53:56;9.18;;;8.27;;
9986;SDS011;5033;46.310;11.214;2023-02-14T01:56:25;9.45;;;8.43;;
9986;SDS011;5033;46.310;11.214;2023-02-14T01:58:58;9.25;;;8.35;;
9986;SDS011;5033;46.310;11.214;2023-02-14T02:01:26;9.98;;;8.98;;
9986;SDS011;5033;46.310;11.214;2023-02-14T02:03:56;9.35;;;8.45;;
9986;SDS011;5033;46.310;11.214;2023-02-14T02:06:26;10.13;;;9.02;;
9986;SDS011;5033;46.310;11.214;2023-02-14T02:09:01;9.23;;;8.32;;
9986;SDS011;5033;46.310;11.214;2023-02-14T02:11:34;10.10;;;9.07;;
9986;SDS011;5033;46.310;11.214;2023-02-14T02:14:03;9.68;;;8.68;;
9986;SDS011;5033;46.310;11.214;2023-02-14T02:16:56;9.27;;;8.38;;
9986;SDS011;5033;46.310;11.214;2023-02-14T02:22:41;9.95;;;8.93;;
9986;SDS011;5033;46.310;11.214;2023-02-14T02:25:43;9.38;;;8.45;;
9986;SDS011;5033;46.310;11.214;2023-02-14T02:28:37;10.55;;;9.45;;
9986;SDS011;5033;46.310;11.214;2023-02-14T02:31:29;9.98;;;8.98;;
9986;SDS011;5033;46.310;11.214;2023-02-14T02:34:21;9.77;;;8.77;;
9986;SDS011;5033;46.310;11.214;2023-02-14T02:37:10;9.93;;;8.77;;
9986;SDS011;5033;46.310;11.214;2023-02-14T02:40:02;9.63;;;8.63;;
9986;SDS011;5033;46.310;11.214;2023-02-14T02:42:45;9.00;;;8.15;;
9986;SDS011;5033;46.310;11.214;2023-02-14T02:45:20;9.88;;;8.88;;
9986;SDS011;5033;46.310;11.214;2023-02-14T02:47:54;9.90;;;8.90;;
9986;SDS011;5033;46.310;11.214;2023-02-14T02:50:29;10.05;;;9.05;;
9986;SDS011;5033;46.310;11.214;2023-02-14T02:53:22;9.95;;;9.00;;
9986;SDS011;5033;46.310;11.214;2023-02-14T02:55:54;9.80;;;8.80;;
9986;SDS011;5033;46.310;11.214;2023-02-14T02:58:43;9.55;;;8.75;;
9986;SDS011;5033;46.310;11.214;2023-02-14T03:01:13;10.10;;;9.10;;
9986;SDS011;5033;46.310;11.214;2023-02-14T03:03:45;10.95;;;8.45;;
9986;SDS011;5033;46.310;11.214;2023-02-14T03:06:33;9.05;;;8.15;;
9986;SDS011;5033;46.310;11.214;2023-02-14T03:09:10;9.55;;;8.57;;
9986;SDS011;5033;46.310;11.214;2023-02-14T03:11:39;9.90;;;8.45;;
9986;SDS011;5033;46.310;11.214;2023-02-14T03:14:15;8.85;;;7.95;;
9986;SDS011;5033;46.310;11.214;2023-02-14T03:16:48;8.48;;;7.68;;
9986;SDS011;5033;46.310;11.214;2023-02-14T03:19:26;9.40;;;8.50;;
9986;SDS011;5033;46.310;11.214;2023-02-14T03:22:20;8.43;;;7.53;;
9986;SDS011;5033;46.310;11.214;2023-02-14T03:24:59;8.18;;;7.38;;
9986;SDS011;5033;46.310;11.214;2023-02-14T03:27:31;8.50;;;7.60;;
9986;SDS011;5033;46.310;11.214;2023-02-14T03:30:05;8.10;;;7.30;;
9986;SDS011;5033;46.310;11.214;2023-02-14T03:32:38;7.45;;;6.80;;
9986;SDS011;5033;46.310;11.214;2023-02-14T03:35:11;8.20;;;7.30;;
9986;SDS011;5033;46.310;11.214;2023-02-14T03:37:46;8.43;;;7.63;;
9986;SDS011;5033;46.310;11.214;2023-02-14T03:40:20;9.05;;;7.63;;
9986;SDS011;5033;46.310;11.214;2023-02-14T03:42:50;9.05;;;8.10;;
9986;SDS011;5033;46.310;11.214;2023-02-14T03:45:23;8.40;;;7.60;;
9986;SDS011;5033;46.310;11.214;2023-02-14T03:47:53;8.52;;;7.72;;
9986;SDS011;5033;46.310;11.214;2023-02-14T03:50:22;10.02;;;9.02;;
9986;SDS011;5033;46.310;11.214;2023-02-14T03:52:52;9.00;;;8.10;;
9986;SDS011;5033;46.310;11.214;2023-02-14T03:55:25;8.55;;;7.75;;
9986;SDS011;5033;46.310;11.214;2023-02-14T03:57:58;8.73;;;7.90;;
9986;SDS011;5033;46.310;11.214;2023-02-14T04:00:31;8.07;;;7.32;;
9986;SDS011;5033;46.310;11.214;2023-02-14T04:03:05;9.18;;;8.30;;
9986;SDS011;5033;46.310;11.214;2023-02-14T04:05:37;7.97;;;7.18;;
9986;SDS011;5033;46.310;11.214;2023-02-14T04:08:08;8.13;;;7.38;;
9986;SDS011;5033;46.310;11.214;2023-02-14T04:10:37;8.02;;;7.28;;
9986;SDS011;5033;46.310;11.214;2023-02-14T04:13:07;8.15;;;7.38;;
9986;SDS011;5033;46.310;11.214;2023-02-14T04:15:34;8.30;;;7.60;;
9986;SDS011;5033;46.310;11.214;2023-02-14T04:18:01;8.40;;;7.60;;
9986;SDS011;5033;46.310;11.214;2023-02-14T04:20:45;7.50;;;6.80;;
9986;SDS011;5033;46.310;11.214;2023-02-14T04:23:12;7.32;;;6.63;;
9986;SDS011;5033;46.310;11.214;2023-02-14T04:25:41;7.43;;;6.78;;
9986;SDS011;5033;46.310;11.214;2023-02-14T04:28:09;7.22;;;6.53;;
9986;SDS011;5033;46.310;11.214;2023-02-14T04:30:37;7.13;;;6.43;;
9986;SDS011;5033;46.310;11.214;2023-02-14T04:33:04;6.88;;;6.28;;
9986;SDS011;5033;46.310;11.214;2023-02-14T04:35:32;7.10;;;6.50;;
9986;SDS011;5033;46.310;11.214;2023-02-14T04:37:59;7.47;;;6.55;;
9986;SDS011;5033;46.310;11.214;2023-02-14T04:40:27;7.38;;;6.70;;
9986;SDS011;5033;46.310;11.214;2023-02-14T04:42:55;7.10;;;6.45;;
9986;SDS011;5033;46.310;11.214;2023-02-14T04:45:24;7.57;;;6.90;;
9986;SDS011;5033;46.310;11.214;2023-02-14T04:47:51;7.45;;;6.72;;
9986;SDS011;5033;46.310;11.214;2023-02-14T04:50:18;6.88;;;6.28;;
9986;SDS011;5033;46.310;11.214;2023-02-14T04:52:47;6.68;;;6.07;;
9986;SDS011;5033;46.310;11.214;2023-02-14T04:55:14;7.53;;;6.82;;
9986;SDS011;5033;46.310;11.214;2023-02-14T04:57:41;7.50;;;6.70;;
9986;SDS011;5033;46.310;11.214;2023-02-14T05:00:11;7.28;;;6.60;;
9986;SDS011;5033;46.310;11.214;2023-02-14T05:02:39;8.32;;;7.53;;
9986;SDS011;5033;46.310;11.214;2023-02-14T05:05:06;7.68;;;6.97;;
9986;SDS011;5033;46.310;11.214;2023-02-14T05:07:33;7.25;;;6.65;;
9986;SDS011;5033;46.310;11.214;2023-02-14T05:10:01;7.85;;;7.15;;
9986;SDS011;5033;46.310;11.214;2023-02-14T05:12:28;7.53;;;6.82;;
9986;SDS011;5033;46.310;11.214;2023-02-14T05:14:55;6.60;;;6.00;;
9986;SDS011;5033;46.310;11.214;2023-02-14T05:17:24;7.47;;;6.78;;
9986;SDS011;5033;46.310;11.214;2023-02-14T05:19:51;7.15;;;6.57;;
9986;SDS011;5033;46.310;11.214;2023-02-14T05:22:18;7.78;;;6.97;;
9986;SDS011;5033;46.310;11.214;2023-02-14T05:24:45;7.95;;;7.20;;
9986;SDS011;5033;46.310;11.214;2023-02-14T05:27:12;7.20;;;6.55;;
9986;SDS011;5033;46.310;11.214;2023-02-14T05:29:39;6.93;;;6.32;;
9986;SDS011;5033;46.310;11.214;2023-02-14T05:32:06;7.30;;;6.60;;
9986;SDS011;5033;46.310;11.214;2023-02-14T05:34:35;6.93;;;6.25;;
9986;SDS011;5033;46.310;11.214;2023-02-14T05:37:02;6.90;;;6.30;;
9986;SDS011;5033;46.310;11.214;2023-02-14T05:39:29;7.47;;;6.80;;
9986;SDS011;5033;46.310;11.214;2023-02-14T05:41:56;7.78;;;7.00;;
9986;SDS011;5033;46.310;11.214;2023-02-14T05:44:23;7.47;;;6.78;;
9986;SDS011;5033;46.310;11.214;2023-02-14T05:46:50;7.82;;;7.13;;
9986;SDS011;5033;46.310;11.214;2023-02-14T05:49:19;7.40;;;6.70;;
9986;SDS011;5033;46.310;11.214;2023-02-14T05:51:47;6.50;;;5.90;;
9986;SDS011;5033;46.310;11.214;2023-02-14T05:54:15;6.55;;;5.95;;
9986;SDS011;5033;46.310;11.214;2023-02-14T05:56:42;7.00;;;6.40;;
9986;SDS011;5033;46.310;11.214;2023-02-14T05:59:09;7.43;;;6.72;;
9986;SDS011;5033;46.310;11.214;2023-02-14T06:01:36;7.70;;;6.93;;
9986;SDS011;5033;46.310;11.214;2023-02-14T06:04:03;7.43;;;6.72;;
9986;SDS011;5033;46.310;11.214;2023-02-14T06:06:30;6.72;;;6.13;;
9986;SDS011;5033;46.310;11.214;2023-02-14T06:08:58;6.18;;;5.68;;
9986;SDS011;5033;46.310;11.214;2023-02-14T06:11:25;6.20;;;5.70;;
9986;SDS011;5033;46.310;11.214;2023-02-14T06:13:52;6.32;;;5.82;;
9986;SDS011;5033;46.310;11.214;2023-02-14T06:16:19;6.38;;;5.85;;
9986;SDS011;5033;46.310;11.214;2023-02-14T06:18:46;7.25;;;6.60;;
9986;SDS011;5033;46.310;11.214;2023-02-14T06:21:13;7.53;;;6.93;;
9986;SDS011;5033;46.310;11.214;2023-02-14T06:23:40;7.68;;;6.97;;
9986;SDS011;5033;46.310;11.214;2023-02-14T06:26:09;7.68;;;6.97;;
9986;SDS011;5033;46.310;11.214;2023-02-14T06:28:36;7.88;;;6.45;;
9986;SDS011;5033;46.310;11.214;2023-02-14T06:31:04;7.25;;;6.65;;
9986;SDS011;5033;46.310;11.214;2023-02-14T06:33:31;8.18;;;7.03;;
9986;SDS011;5033;46.310;11.214;2023-02-14T06:35:58;8.43;;;7.57;;
9986;SDS011;5033;46.310;11.214;2023-02-14T06:38:25;7.70;;;7.00;;
9986;SDS011;5033;46.310;11.214;2023-02-14T06:40:52;6.82;;;6.22;;
9986;SDS011;5033;46.310;11.214;2023-02-14T06:43:20;6.00;;;5.50;;
9986;SDS011;5033;46.310;11.214;2023-02-14T06:45:47;6.55;;;6.00;;
9986;SDS011;5033;46.310;11.214;2023-02-14T06:48:16;6.75;;;6.15;;
9986;SDS011;5033;46.310;11.214;2023-02-14T06:50:45;6.20;;;5.68;;
9986;SDS011;5033;46.310;11.214;2023-02-14T06:53:12;5.82;;;5.32;;
9986;SDS011;5033;46.310;11.214;2023-02-14T06:55:39;5.32;;;4.93;;
9986;SDS011;5033;46.310;11.214;2023-02-14T06:58:06;6.05;;;5.55;;
9986;SDS011;5033;46.310;11.214;2023-02-14T07:00:34;5.72;;;5.22;;
9986;SDS011;5033;46.310;11.214;2023-02-14T07:03:01;5.22;;;4.82;;
9986;SDS011;5033;46.310;11.214;2023-02-14T07:05:28;7.03;;;6.15;;
9986;SDS011;5033;46.310;11.214;2023-02-14T07:07:55;6.13;;;5.63;;
9986;SDS011;5033;46.310;11.214;2023-02-14T07:10:22;6.57;;;5.97;;
9986;SDS011;5033;46.310;11.214;2023-02-14T07:12:50;6.28;;;5.70;;
9986;SDS011;5033;46.310;11.214;2023-02-14T07:15:17;6.43;;;5.90;;
9986;SDS011;5033;46.310;11.214;2023-02-14T07:17:46;5.65;;;5.15;;
9986;SDS011;5033;46.310;11.214;2023-02-14T07:20:13;6.45;;;5.85;;
9986;SDS011;5033;46.310;11.214;2023-02-14T07:22:40;5.57;;;5.07;;
9986;SDS011;5033;46.310;11.214;2023-02-14T07:25:07;5.85;;;5.35;;
9986;SDS011;5033;46.310;11.214;2023-02-14T07:27:34;5.78;;;5.28;;
9986;SDS011;5033;46.310;11.214;2023-02-14T07:30:02;5.82;;;5.32;;
9986;SDS011;5033;46.310;11.214;2023-02-14T07:32:30;6.05;;;5.45;;
9986;SDS011;5033;46.310;11.214;2023-02-14T07:34:58;6.40;;;5.90;;
9986;SDS011;5033;46.310;11.214;2023-02-14T07:37:26;5.72;;;5.22;;
9986;SDS011;5033;46.310;11.214;2023-02-14T07:39:53;6.22;;;5.63;;
9986;SDS011;5033;46.310;11.214;2023-02-14T07:42:20;6.53;;;6.03;;
9986;SDS011;5033;46.310;11.214;2023-02-14T07:44:47;8.85;;;6.60;;
9986;SDS011;5033;46.310;11.214;2023-02-14T07:47:14;6.43;;;5.88;;
9986;SDS011;5033;46.310;11.214;2023-02-14T07:49:41;7.82;;;7.13;;
9986;SDS011;5033;46.310;11.214;2023-02-14T07:52:09;8.00;;;7.25;;
9986;SDS011;5033;46.310;11.214;2023-02-14T07:54:36;8.75;;;7.95;;
9986;SDS011;5033;46.310;11.214;2023-02-14T07:57:04;7.80;;;7.00;;
9986;SDS011;5033;46.310;11.214;2023-02-14T07:59:31;9.50;;;7.47;;
9986;SDS011;5033;46.310;11.214;2023-02-14T08:01:58;8.05;;;7.28;;
9986;SDS011;5033;46.310;11.214;2023-02-14T08:04:25;6.15;;;5.55;;
9986;SDS011;5033;46.310;11.214;2023-02-14T08:06:52;7.45;;;6.70;;
9986;SDS011;5033;46.310;11.214;2023-02-14T08:09:22;7.90;;;7.10;;
9986;SDS011;5033;46.310;11.214;2023-02-14T08:11:52;8.23;;;7.03;;
9986;SDS011;5033;46.310;11.214;2023-02-14T08:14:37;8.63;;;6.13;;
9986;SDS011;5033;46.310;11.214;2023-02-14T08:17:04;7.72;;;6.55;;
9986;SDS011;5033;46.310;11.214;2023-02-14T08:19:34;10.48;;;7.05;;
9986;SDS011;5033;46.310;11.214;2023-02-14T08:22:01;7.97;;;7.18;;
9986;SDS011;5033;46.310;11.214;2023-02-14T08:24:30;6.65;;;5.95;;
9986;SDS011;5033;46.310;11.214;2023-02-14T08:26:57;6.85;;;6.25;;
9986;SDS011;5033;46.310;11.214;2023-02-14T08:29:24;6.15;;;5.55;;
9986;SDS011;5033;46.310;11.214;2023-02-14T08:31:51;7.68;;;5.40;;
9986;SDS011;5033;46.310;11.214;2023-02-14T08:34:18;6.32;;;5.72;;
9986;SDS011;5033;46.310;11.214;2023-02-14T08:36:46;9.75;;;5.72;;
9986;SDS011;5033;46.310;11.214;2023-02-14T08:39:13;6.53;;;5.35;;
9986;SDS011;5033;46.310;11.214;2023-02-14T08:41:41;7.60;;;5.85;;
9986;SDS011;5033;46.310;11.214;2023-02-14T08:44:08;5.82;;;4.68;;
9986;SDS011;5033;46.310;11.214;2023-02-14T08:46:35;5.75;;;5.25;;
9986;SDS011;5033;46.310;11.214;2023-02-14T08:49:03;5.45;;;4.95;;
9986;SDS011;5033;46.310;11.214;2023-02-14T08:51:30;6.00;;;5.30;;
9986;SDS011;5033;46.310;11.214;2023-02-14T08:53:57;5.53;;;5.00;;
9986;SDS011;5033;46.310;11.214;2023-02-14T08:56:24;4.68;;;4.28;;
9986;SDS011;5033;46.310;11.214;2023-02-14T08:58:53;5.78;;;5.28;;
9986;SDS011;5033;46.310;11.214;2023-02-14T09:01:20;5.78;;;5.22;;
9986;SDS011;5033;46.310;11.214;2023-02-14T09:03:47;5.85;;;5.05;;
9986;SDS011;5033;46.310;11.214;2023-02-14T09:06:15;5.15;;;4.65;;
9986;SDS011;5033;46.310;11.214;2023-02-14T09:08:43;5.93;;;5.05;;
9986;SDS011;5033;46.310;11.214;2023-02-14T09:11:11;5.63;;;5.05;;
9986;SDS011;5033;46.310;11.214;2023-02-14T09:13:39;5.75;;;5.25;;
9986;SDS011;5033;46.310;11.214;2023-02-14T09:16:10;5.43;;;4.93;;
9986;SDS011;5033;46.310;11.214;2023-02-14T09:18:38;5.93;;;5.32;;
9986;SDS011;5033;46.310;11.214;2023-02-14T09:21:06;5.85;;;4.93;;
9986;SDS011;5033;46.310;11.214;2023-02-14T09:23:34;9.15;;;5.93;;
9986;SDS011;5033;46.310;11.214;2023-02-14T09:26:02;5.43;;;4.93;;
9986;SDS011;5033;46.310;11.214;2023-02-14T09:28:30;5.97;;;4.93;;
9986;SDS011;5033;46.310;11.214;2023-02-14T09:30:58;5.25;;;4.75;;
9986;SDS011;5033;46.310;11.214;2023-02-14T09:33:36;4.93;;;4.43;;
9986;SDS011;5033;46.310;11.214;2023-02-14T09:36:03;6.47;;;4.65;;
9986;SDS011;5033;46.310;11.214;2023-02-14T09:38:38;5.97;;;4.88;;
9986;SDS011;5033;46.310;11.214;2023-02-14T09:41:05;5.18;;;4.68;;
9986;SDS011;5033;46.310;11.214;2023-02-14T09:43:35;5.80;;;5.22;;
9986;SDS011;5033;46.310;11.214;2023-02-14T09:46:04;5.70;;;4.97;;
9986;SDS011;5033;46.310;11.214;2023-02-14T09:48:37;6.53;;;5.18;;
9986;SDS011;5033;46.310;11.214;2023-02-14T09:51:10;5.25;;;4.75;;
9986;SDS011;5033;46.310;11.214;2023-02-14T09:53:42;7.63;;;5.55;;
9986;SDS011;5033;46.310;11.214;2023-02-14T09:56:14;6.00;;;5.40;;
9986;SDS011;5033;46.310;11.214;2023-02-14T09:58:48;8.52;;;5.55;;
9986;SDS011;5033;46.310;11.214;2023-02-14T10:01:24;5.55;;;4.90;;
9986;SDS011;5033;46.310;11.214;2023-02-14T10:03:58;5.20;;;4.72;;
9986;SDS011;5033;46.310;11.214;2023-02-14T10:06:41;5.80;;;4.65;;
9986;SDS011;5033;46.310;11.214;2023-02-14T10:09:16;5.93;;;4.35;;
9986;SDS011;5033;46.310;11.214;2023-02-14T10:12:04;4.28;;;3.78;;
9986;SDS011;5033;46.310;11.214;2023-02-14T10:14:39;5.15;;;4.65;;
9986;SDS011;5033;46.310;11.214;2023-02-14T10:17:09;6.53;;;4.47;;
9986;SDS011;5033;46.310;11.214;2023-02-14T10:19:42;5.28;;;4.78;;
9986;SDS011;5033;46.310;11.214;2023-02-14T10:22:14;4.75;;;4.20;;
9986;SDS011;5033;46.310;11.214;2023-02-14T10:24:44;5.40;;;4.85;;
9986;SDS011;5033;46.310;11.214;2023-02-14T10:27:17;7.88;;;4.68;;
9986;SDS011;5033;46.310;11.214;2023-02-14T10:29:54;6.88;;;4.75;;
9986;SDS011;5033;46.310;11.214;2023-02-14T10:32:24;5.28;;;4.65;;
9986;SDS011;5033;46.310;11.214;2023-02-14T10:34:58;4.82;;;4.40;;
9986;SDS011;5033;46.310;11.214;2023-02-14T10:37:33;5.93;;;4.90;;
9986;SDS011;5033;46.310;11.214;2023-02-14T10:40:22;4.78;;;4.35;;
9986;SDS011;5033;46.310;11.214;2023-02-14T10:43:04;5.35;;;4.57;;
9986;SDS011;5033;46.310;11.214;2023-02-14T10:45:40;5.10;;;4.60;;
9986;SDS011;5033;46.310;11.214;2023-02-14T10:48:18;6.97;;;4.45;;
9986;SDS011;5033;46.310;11.214;2023-02-14T10:50:54;6.18;;;4.50;;
9986;SDS011;5033;46.310;11.214;2023-02-14T10:53:27;7.43;;;4.80;;
9986;SDS011;5033;46.310;11.214;2023-02-14T10:56:01;4.90;;;4.38;;
9986;SDS011;5033;46.310;11.214;2023-02-14T10:58:33;4.70;;;4.20;;
9986;SDS011;5033;46.310;11.214;2023-02-14T11:01:04;5.00;;;4.50;;
9986;SDS011;5033;46.310;11.214;2023-02-14T11:03:37;5.47;;;4.82;;
9986;SDS011;5033;46.310;11.214;2023-02-14T11:06:06;5.65;;;5.05;;
9986;SDS011;5033;46.310;11.214;2023-02-14T11:08:34;5.95;;;5.13;;
9986;SDS011;5033;46.310;11.214;2023-02-14T11:11:04;4.07;;;3.78;;
9986;SDS011;5033;46.310;11.214;2023-02-14T11:13:39;5.07;;;3.95;;
9986;SDS011;5033;46.310;11.214;2023-02-14T11:16:08;5.38;;;4.32;;
9986;SDS011;5033;46.310;11.214;2023-02-14T11:18:38;5.10;;;4.20;;
9986;SDS011;5033;46.310;11.214;2023-02-14T11:21:08;4.53;;;4.05;;
9986;SDS011;5033;46.310;11.214;2023-02-14T11:23:37;5.40;;;4.57;;
9986;SDS011;5033;46.310;11.214;2023-02-14T11:26:10;5.40;;;4.90;;
9986;SDS011;5033;46.310;11.214;2023-02-14T11:28:48;5.05;;;4.05;;
9986;SDS011;5033;46.310;11.214;2023-02-14T11:31:25;4.68;;;4.28;;
9986;SDS011;5033;46.310;11.214;2023-02-14T11:33:55;4.68;;;4.28;;
9986;SDS011;5033;46.310;11.214;2023-02-14T11:36:23;5.40;;;3.90;;
9986;SDS011;5033;46.310;11.214;2023-02-14T11:38:57;5.43;;;4.28;;
9986;SDS011;5033;46.310;11.214;2023-02-14T11:41:44;5.07;;;4.45;;
9986;SDS011;5033;46.310;11.214;2023-02-14T11:44:13;5.35;;;4.45;;
9986;SDS011;5033;46.310;11.214;2023-02-14T11:46:48;4.97;;;4.00;;
9986;SDS011;5033;46.310;11.214;2023-02-14T11:49:24;4.57;;;4.18;;
9986;SDS011;5033;46.310;11.214;2023-02-14T11:51:54;5.30;;;4.10;;
9986;SDS011;5033;46.310;11.214;2023-02-14T11:54:27;4.53;;;4.13;;
9986;SDS011;5033;46.310;11.214;2023-02-14T11:57:00;5.30;;;4.60;;
9986;SDS011;5033;46.310;11.214;2023-02-14T11:59:30;5.55;;;4.40;;
9986;SDS011;5033;46.310;11.214;2023-02-14T12:02:01;5.28;;;4.78;;
9986;SDS011;5033;46.310;11.214;2023-02-14T12:04:47;5.28;;;4.78;;
9986;SDS011;5033;46.310;11.214;2023-02-14T12:07:18;4.68;;;4.28;;
9986;SDS011;5033;46.310;11.214;2023-02-14T12:09:48;4.68;;;4.18;;
9986;SDS011;5033;46.310;11.214;2023-02-14T12:12:34;4.78;;;4.38;;
9986;SDS011;5033;46.310;11.214;2023-02-14T12:15:11;4.85;;;4.40;;
9986;SDS011;5033;46.310;11.214;2023-02-14T12:17:52;4.63;;;4.07;;
9986;SDS011;5033;46.310;11.214;2023-02-14T12:20:30;4.93;;;4.00;;
9986;SDS011;5033;46.310;11.214;2023-02-14T12:23:08;4.35;;;3.95;;
9986;SDS011;5033;46.310;11.214;2023-02-14T12:25:41;4.28;;;3.85;;
9986;SDS011;5033;46.310;11.214;2023-02-14T12:28:13;5.38;;;4.28;;
9986;SDS011;5033;46.310;11.214;2023-02-14T12:30:44;4.15;;;3.80;;
9986;SDS011;5033;46.310;11.214;2023-02-14T12:33:13;4.25;;;3.85;;
9986;SDS011;5033;46.310;11.214;2023-02-14T12:35:54;6.25;;;4.00;;
9986;SDS011;5033;46.310;11.214;2023-02-14T12:38:30;5.93;;;4.07;;
9986;SDS011;5033;46.310;11.214;2023-02-14T12:41:08;5.57;;;4.05;;
9986;SDS011;5033;46.310;11.214;2023-02-14T12:43:46;3.80;;;3.50;;
9986;SDS011;5033;46.310;11.214;2023-02-14T12:46:20;4.72;;;4.03;;
9986;SDS011;5033;46.310;11.214;2023-02-14T12:49:06;4.75;;;3.75;;
9986;SDS011;5033;46.310;11.214;2023-02-14T12:51:52;3.80;;;3.30;;
9986;SDS011;5033;46.310;11.214;2023-02-14T12:54:42;3.35;;;3.05;;
9986;SDS011;5033;46.310;11.214;2023-02-14T12:57:22;5.95;;;3.20;;
9986;SDS011;5033;46.310;11.214;2023-02-14T13:00:03;4.18;;;3.60;;
9986;SDS011;5033;46.310;11.214;2023-02-14T13:03:02;3.90;;;3.60;;
9986;SDS011;5033;46.310;11.214;2023-02-14T13:05:49;3.45;;;3.15;;
9986;SDS011;5033;46.310;11.214;2023-02-14T13:08:32;5.15;;;3.80;;
9986;SDS011;5033;46.310;11.214;2023-02-14T13:11:14;3.90;;;3.35;;
9986;SDS011;5033;46.310;11.214;2023-02-14T13:13:52;4.13;;;3.45;;
9986;SDS011;5033;46.310;11.214;2023-02-14T13:16:29;3.72;;;3.10;;
9986;SDS011;5033;46.310;11.214;2023-02-14T13:19:02;3.90;;;3.58;;
9986;SDS011;5033;46.310;11.214;2023-02-14T13:21:35;5.88;;;3.25;;
9986;SDS011;5033;46.310;11.214;2023-02-14T13:24:10;3.47;;;3.17;;
9986;SDS011;5033;46.310;11.214;2023-02-14T13:26:42;5.22;;;3.70;;
9986;SDS011;5033;46.310;11.214;2023-02-14T13:29:14;3.35;;;2.92;;
9986;SDS011;5033;46.310;11.214;2023-02-14T13:31:43;3.50;;;3.20;;
9986;SDS011;5033;46.310;11.214;2023-02-14T13:34:14;4.43;;;2.90;;
9986;SDS011;5033;46.310;11.214;2023-02-14T13:36:50;3.90;;;3.38;;
9986;SDS011;5033;46.310;11.214;2023-02-14T13:39:21;4.05;;;3.00;;
9986;SDS011;5033;46.310;11.214;2023-02-14T13:41:54;3.88;;;3.15;;
9986;SDS011;5033;46.310;11.214;2023-02-14T13:47:13;4.00;;;3.38;;
9986;SDS011;5033;46.310;11.214;2023-02-14T13:49:45;2.97;;;2.70;;
9986;SDS011;5033;46.310;11.214;2023-02-14T13:55:12;3.28;;;2.97;;
9986;SDS011;5033;46.310;11.214;2023-02-14T13:57:43;3.50;;;3.20;;
9986;SDS011;5033;46.310;11.214;2023-02-14T14:03:09;4.43;;;2.97;;
9986;SDS011;5033;46.310;11.214;2023-02-14T14:05:56;3.17;;;2.70;;
9986;SDS011;5033;46.310;11.214;2023-02-14T14:08:40;2.92;;;2.60;;
9986;SDS011;5033;46.310;11.214;2023-02-14T14:14:35;3.13;;;2.67;;
9986;SDS011;5033;46.310;11.214;2023-02-14T14:17:16;2.60;;;2.40;;
9986;SDS011;5033;46.310;11.214;2023-02-14T14:19:49;3.83;;;2.53;;
9986;SDS011;5033;46.310;11.214;2023-02-14T14:22:17;4.45;;;3.15;;
9986;SDS011;5033;46.310;11.214;2023-02-14T14:24:52;3.13;;;2.63;;
9986;SDS011;5033;46.310;11.214;2023-02-14T14:27:25;3.15;;;2.65;;
9986;SDS011;5033;46.310;11.214;2023-02-14T14:29:57;3.08;;;2.38;;
9986;SDS011;5033;46.310;11.214;2023-02-14T14:32:28;3.08;;;2.60;;
9986;SDS011;5033;46.310;11.214;2023-02-14T14:34:56;3.90;;;3.03;;
9986;SDS011;5033;46.310;11.214;2023-02-14T14:37:25;6.63;;;3.45;;
9986;SDS011;5033;46.310;11.214;2023-02-14T14:39:55;4.40;;;3.17;;
9986;SDS011;5033;46.310;11.214;2023-02-14T14:42:23;4.80;;;2.95;;
9986;SDS011;5033;46.310;11.214;2023-02-14T14:44:53;2.95;;;2.65;;
9986;SDS011;5033;46.310;11.214;2023-02-14T14:47:25;3.05;;;2.83;;
9986;SDS011;5033;46.310;11.214;2023-02-14T14:49:58;3.22;;;2.92;;
9986;SDS011;5033;46.310;11.214;2023-02-14T14:52:32;2.47;;;2.28;;
9986;SDS011;5033;46.310;11.214;2023-02-14T14:55:02;4.20;;;2.70;;
9986;SDS011;5033;46.310;11.214;2023-02-14T14:57:31;2.53;;;2.33;;
9986;SDS011;5033;46.310;11.214;2023-02-14T15:00:07;2.72;;;2.50;;
9986;SDS011;5033;46.310;11.214;2023-02-14T15:02:58;3.72;;;3.03;;
9986;SDS011;5033;46.310;11.214;2023-02-14T15:05:31;4.60;;;4.07;;
9986;SDS011;5033;46.310;11.214;2023-02-14T15:08:17;10.27;;;8.20;;
9986;SDS011;5033;46.310;11.214;2023-02-14T15:10:47;11.88;;;9.55;;
9986;SDS011;5033;46.310;11.214;2023-02-14T15:13:18;10.73;;;8.15;;
9986;SDS011;5033;46.310;11.214;2023-02-14T15:16:10;8.18;;;6.63;;
9986;SDS011;5033;46.310;11.214;2023-02-14T15:18:41;7.32;;;5.82;;
9986;SDS011;5033;46.310;11.214;2023-02-14T15:21:08;8.02;;;6.65;;
9986;SDS011;5033;46.310;11.214;2023-02-14T15:23:35;7.53;;;6.18;;
9986;SDS011;5033;46.310;11.214;2023-02-14T15:26:02;6.68;;;5.40;;
9986;SDS011;5033;46.310;11.214;2023-02-14T15:28:31;7.50;;;6.20;;
9986;SDS011;5033;46.310;11.214;2023-02-14T15:31:03;8.75;;;6.30;;
9986;SDS011;5033;46.310;11.214;2023-02-14T15:33:34;9.20;;;6.50;;
9986;SDS011;5033;46.310;11.214;2023-02-14T15:36:03;9.05;;;6.95;;
9986;SDS011;5033;46.310;11.214;2023-02-14T15:38:34;7.85;;;6.82;;